Time;durP1;ratioP1;P1;durP2;ratioP2;P2;SDS_P1;SDS_P2;PMS_P1;PMS_P2;Temp;Humidity;BMP_temperature;BMP_pressure;BME280_temperature;BME280_humidity;BME280_pressure;Samples;Min_cycle;Max_cycle;Signal;HPM_P1;HPM_P2
2022/05/04 00:01:08;;;;;;;16.48;8.48;;;13.30;61.00;;;;;;5035995;28;20021;-78
2022/05/04 00:03:39;;;;;;;15.68;9.30;;;13.30;61.00;;;;;;5061339;28;20442;-78
2022/05/04 00:06:08;;;;;;;16.20;9.15;;;13.30;61.00;;;;;;5045486;28;20057;-79
2022/05/04 00:08:41;;;;;;;16.85;10.88;;;13.30;61.00;;;;;;5036050;28;20026;-80
2022/05/04 00:11:07;;;;;;;15.07;9.52;;;13.20;61.40;;;;;;5035399;28;20403;-78
2022/05/04 00:13:34;;;;;;;16.65;9.45;;;13.10;61.70;;;;;;5035905;28;20124;-78
2022/05/04 00:16:03;;;;;;;17.40;10.10;;;13.20;61.60;;;;;;5035879;28;20029;-78
2022/05/04 00:18:29;;;;;;;15.77;10.23;;;13.20;61.50;;;;;;5035836;28;20021;-77
2022/05/04 00:20:56;;;;;;;18.63;9.85;;;13.20;61.30;;;;;;5035755;28;20025;-77
2022/05/04 00:23:22;;;;;;;18.65;10.10;;;13.20;61.50;;;;;;5034506;28;20468;-77
2022/05/04 00:25:48;;;;;;;17.17;9.68;;;13.10;61.80;;;;;;5035787;28;20029;-78
2022/05/04 00:28:13;;;;;;;15.45;9.07;;;13.00;62.10;;;;;;5035357;28;20112;-78
2022/05/04 00:30:39;;;;;;;18.98;10.52;;;13.10;61.90;;;;;;5035733;28;20063;-78
2022/05/04 00:33:05;;;;;;;18.15;10.15;;;13.00;61.80;;;;;;5035901;28;20022;-78
2022/05/04 00:35:30;;;;;;;17.73;9.40;;;13.10;61.60;;;;;;5035513;28;20025;-78
2022/05/04 00:37:56;;;;;;;16.58;9.18;;;13.00;61.70;;;;;;5035513;28;20068;-78
2022/05/04 00:40:22;;;;;;;17.67;9.60;;;12.90;62.10;;;;;;5035629;28;20053;-78
2022/05/04 00:42:47;;;;;;;18.25;10.38;;;12.80;62.30;;;;;;5035464;28;20133;-77
2022/05/04 00:45:13;;;;;;;20.88;9.95;;;12.80;62.40;;;;;;5035493;28;20518;-77
2022/05/04 00:47:39;;;;;;;18.05;9.80;;;12.80;62.30;;;;;;5034751;28;20033;-78
2022/05/04 00:50:06;;;;;;;16.15;9.60;;;12.80;62.50;;;;;;5035350;28;20493;-78
2022/05/04 00:52:37;;;;;;;19.60;9.57;;;12.80;62.20;;;;;;5048678;28;20033;-78
2022/05/04 00:55:06;;;;;;;18.27;10.35;;;12.70;62.40;;;;;;5042304;28;20026;-78
2022/05/04 01:00:18;;;;;;;15.73;10.40;;;12.70;62.60;;;;;;5035494;28;20404;-78
2022/05/04 01:02:44;;;;;;;14.93;9.35;;;12.70;62.50;;;;;;5049323;28;20025;-78
2022/05/04 01:05:11;;;;;;;17.33;9.90;;;12.70;62.20;;;;;;5052029;28;20025;-78
2022/05/04 01:07:41;;;;;;;20.33;10.35;;;12.70;62.50;;;;;;5035328;28;20040;-78
2022/05/04 01:10:09;;;;;;;18.20;10.02;;;12.60;62.30;;;;;;5035109;28;20480;-78
2022/05/04 01:12:36;;;;;;;18.30;10.88;;;12.50;63.00;;;;;;5035115;28;20483;-79
2022/05/04 01:15:03;;;;;;;16.73;9.38;;;12.40;63.20;;;;;;5035225;28;20022;-79
2022/05/04 01:17:29;;;;;;;21.75;11.52;;;12.40;63.60;;;;;;5035184;28;20025;-79
2022/05/04 01:19:57;;;;;;;19.15;10.75;;;12.30;63.50;;;;;;5053430;28;20519;-79
2022/05/04 01:22:24;;;;;;;17.65;10.43;;;12.40;63.40;;;;;;5053655;28;20018;-79
2022/05/04 01:24:50;;;;;;;16.70;9.75;;;12.40;63.20;;;;;;5052103;28;20028;-79
2022/05/04 01:27:15;;;;;;;18.60;10.93;;;12.50;63.10;;;;;;5039261;28;20049;-79
2022/05/04 01:29:41;;;;;;;18.13;10.07;;;12.40;63.20;;;;;;5039303;28;20033;-79
2022/05/04 01:32:07;;;;;;;17.98;9.93;;;12.20;64.00;;;;;;5038861;28;20033;-79
2022/05/04 01:34:33;;;;;;;19.33;10.55;;;12.10;64.30;;;;;;5037640;28;20096;-79
2022/05/04 01:37:00;;;;;;;17.42;10.40;;;12.00;64.70;;;;;;5052231;28;20455;-79
2022/05/04 01:39:25;;;;;;;17.88;9.98;;;11.90;64.70;;;;;;5058468;28;20033;-78
2022/05/04 01:42:03;;;;;;;21.10;10.05;;;11.90;64.60;;;;;;5058599;28;20475;-78
2022/05/04 01:44:32;;;;;;;17.48;9.82;;;11.90;64.70;;;;;;5057354;28;20538;-78
2022/05/04 01:46:59;;;;;;;17.40;10.45;;;12.00;64.50;;;;;;5039620;28;20112;-78
2022/05/04 01:49:25;;;;;;;18.75;11.98;;;12.10;64.20;;;;;;5038627;28;20037;-78
2022/05/04 01:51:50;;;;;;;18.67;10.75;;;12.10;64.10;;;;;;5050208;28;20039;-79
2022/05/04 01:54:16;;;;;;;21.52;11.13;;;12.20;64.10;;;;;;5058677;28;20029;-78
2022/05/04 01:56:42;;;;;;;19.95;10.75;;;12.20;64.00;;;;;;5055318;28;20029;-78
2022/05/04 01:59:07;;;;;;;22.60;12.05;;;12.20;63.70;;;;;;5058499;28;20079;-78
2022/05/04 02:01:34;;;;;;;24.40;11.52;;;12.00;64.40;;;;;;5045625;28;20089;-78
2022/05/04 02:04:00;;;;;;;23.73;12.00;;;11.90;64.60;;;;;;5048264;28;20036;-78
2022/05/04 02:06:27;;;;;;;19.52;10.55;;;11.90;64.80;;;;;;5049806;28;20049;-78
2022/05/04 02:08:52;;;;;;;21.80;11.50;;;12.00;64.50;;;;;;5038423;28;20021;-79
2022/05/04 02:11:18;;;;;;;20.77;12.32;;;12.00;64.30;;;;;;5036974;28;20124;-78
2022/05/04 02:13:44;;;;;;;22.00;12.75;;;12.00;64.50;;;;;;5048990;28;20037;-78
2022/05/04 02:16:10;;;;;;;19.33;10.73;;;11.90;64.50;;;;;;5056121;28;20394;-77
2022/05/04 02:18:36;;;;;;;20.90;11.95;;;11.90;64.70;;;;;;5058254;28;20731;-77
2022/05/04 02:21:01;;;;;;;24.75;12.63;;;11.90;64.50;;;;;;5042569;28;20040;-78
2022/05/04 02:23:27;;;;;;;22.55;11.85;;;11.90;64.40;;;;;;5038101;28;20029;-78
2022/05/04 02:25:53;;;;;;;18.50;11.40;;;12.00;64.60;;;;;;5038219;28;20507;-78
2022/05/04 02:28:19;;;;;;;23.45;12.50;;;12.00;64.40;;;;;;5036338;28;20163;-78
2022/05/04 02:30:44;;;;;;;18.70;11.50;;;12.00;64.80;;;;;;5037998;28;20025;-78
2022/05/04 02:33:11;;;;;;;24.05;12.57;;;11.90;65.00;;;;;;5037937;28;20480;-79
2022/05/04 02:38:21;;;;;;;24.02;12.75;;;11.90;64.80;;;;;;5057950;28;20055;-78
2022/05/04 02:40:48;;;;;;;25.20;13.00;;;11.70;65.50;;;;;;5057752;28;20020;-78
2022/05/04 02:43:13;;;;;;;22.77;12.38;;;11.70;66.10;;;;;;5051493;28;20048;-78
2022/05/04 02:45:39;;;;;;;21.77;13.65;;;11.50;67.10;;;;;;5037706;28;20030;-78
2022/05/04 02:48:08;;;;;;;23.90;13.40;;;11.40;67.10;;;;;;5037606;28;20040;-78
2022/05/04 02:50:35;;;;;;;27.52;14.00;;;11.40;67.20;;;;;;5052915;28;20396;-79
2022/05/04 02:53:00;;;;;;;23.75;13.18;;;11.50;67.00;;;;;;5054331;28;20087;-78
2022/05/04 02:55:26;;;;;;;24.30;12.85;;;11.50;66.80;;;;;;5056153;28;20033;-78
2022/05/04 02:57:52;;;;;;;26.27;13.85;;;11.60;66.60;;;;;;5039460;28;20061;-78
2022/05/04 03:00:18;;;;;;;27.92;14.23;;;11.60;66.60;;;;;;5037337;28;20104;-78
2022/05/04 03:02:44;;;;;;;22.23;12.52;;;11.60;66.40;;;;;;5069579;28;20108;-78
2022/05/04 03:05:11;;;;;;;21.67;13.68;;;11.60;66.40;;;;;;5043084;28;20017;-78
2022/05/04 03:07:38;;;;;;;29.67;13.60;;;11.60;66.40;;;;;;5037281;28;20029;-78
2022/05/04 03:10:05;;;;;;;26.30;13.98;;;11.50;66.70;;;;;;5037300;28;20057;-78
2022/05/04 03:12:31;;;;;;;25.98;13.88;;;11.40;67.20;;;;;;5036577;28;20489;-78
2022/05/04 03:14:56;;;;;;;26.35;14.35;;;11.50;67.10;;;;;;5041591;28;20033;-78
2022/05/04 03:17:22;;;;;;;26.45;14.35;;;11.50;66.80;;;;;;5037281;28;20022;-78
2022/05/04 03:19:49;;;;;;;25.80;14.32;;;11.50;66.60;;;;;;5037107;28;20025;-79
2022/05/04 03:22:14;;;;;;;23.27;13.00;;;11.50;66.60;;;;;;5042163;28;20021;-78
2022/05/04 03:24:40;;;;;;;20.80;12.43;;;11.50;66.50;;;;;;5057080;28;20039;-78
2022/05/04 03:27:07;;;;;;;25.55;13.38;;;11.50;66.60;;;;;;5056841;28;20029;-78
2022/05/04 03:29:33;;;;;;;27.88;13.82;;;11.40;66.80;;;;;;5056135;28;20041;-78
2022/05/04 03:31:59;;;;;;;27.35;14.50;;;11.40;67.00;;;;;;5043007;28;20044;-78
2022/05/04 03:34:25;;;;;;;25.40;14.77;;;11.40;67.20;;;;;;5036662;28;20029;-78
2022/05/04 03:36:51;;;;;;;27.63;14.10;;;11.40;67.10;;;;;;5036647;28;20033;-78
2022/05/04 03:39:19;;;;;;;25.92;13.57;;;11.40;67.30;;;;;;5036580;28;20399;-78
2022/05/04 03:41:45;;;;;;;27.00;14.38;;;11.30;67.40;;;;;;5036731;28;20037;-78
2022/05/04 03:44:11;;;;;;;26.00;13.70;;;11.20;67.90;;;;;;5036369;28;20028;-77
2022/05/04 03:46:43;;;;;;;28.92;14.68;;;11.10;68.60;;;;;;5033852;28;20033;-78
2022/05/04 03:49:09;;;;;;;34.70;14.95;;;11.10;68.80;;;;;;5036015;28;20113;-78
2022/05/04 03:51:35;;;;;;;33.95;15.20;;;11.00;69.20;;;;;;5073888;28;20021;-77
2022/05/04 03:54:00;;;;;;;32.85;15.38;;;11.00;68.90;;;;;;5050184;28;20841;-77
2022/05/04 03:56:31;;;;;;;30.88;15.27;;;11.00;68.90;;;;;;5036259;28;20040;-77
2022/05/04 03:58:57;;;;;;;34.03;15.13;;;11.10;68.70;;;;;;5068091;28;20029;-78
2022/05/04 04:01:23;;;;;;;25.92;13.27;;;11.20;68.50;;;;;;5034904;28;20076;-78
2022/05/04 04:03:48;;;;;;;29.35;14.70;;;11.20;68.30;;;;;;5049657;28;20039;-79
2022/05/04 04:06:15;;;;;;;31.80;15.25;;;11.20;68.10;;;;;;5055674;28;20063;-78
2022/05/04 04:08:41;;;;;;;29.85;15.13;;;11.20;67.90;;;;;;5050616;28;20093;-78
2022/05/04 04:11:07;;;;;;;31.40;15.45;;;11.00;68.80;;;;;;5036133;28;20482;-79
2022/05/04 04:13:35;;;;;;;33.42;15.35;;;11.00;69.10;;;;;;5035785;28;20025;-78
2022/05/04 04:16:01;;;;;;;30.55;15.85;;;10.90;69.70;;;;;;5035994;28;20044;-78
2022/05/04 04:18:27;;;;;;;26.73;15.02;;;10.80;69.90;;;;;;5034591;28;20029;-78
2022/05/04 04:23:38;;;;;;;32.15;16.38;;;10.70;70.60;;;;;;5055453;28;20040;-78
2022/05/04 04:26:05;;;;;;;31.83;15.80;;;10.80;70.30;;;;;;5054611;28;20071;-78
2022/05/04 04:28:34;;;;;;;31.35;16.02;;;10.80;70.10;;;;;;5049040;28;20033;-79
2022/05/04 04:30:59;;;;;;;30.30;14.95;;;10.80;70.10;;;;;;5035698;28;20032;-78
2022/05/04 04:33:29;;;;;;;29.83;15.35;;;10.90;69.80;;;;;;5035706;28;20025;-78
2022/05/04 04:35:59;;;;;;;28.42;14.82;;;10.90;69.70;;;;;;5035624;28;20052;-78
2022/05/04 04:38:25;;;;;;;27.40;15.43;;;11.00;69.40;;;;;;5042911;28;20453;-78
2022/05/04 04:40:51;;;;;;;31.38;17.05;;;10.90;69.30;;;;;;5055411;28;20033;-79
2022/05/04 04:43:17;;;;;;;27.13;14.40;;;10.90;69.80;;;;;;5054634;28;20017;-78
2022/05/04 04:45:47;;;;;;;30.58;15.25;;;10.90;69.60;;;;;;5054920;28;20025;-78
2022/05/04 04:48:17;;;;;;;26.75;14.73;;;10.90;69.50;;;;;;5036681;28;20089;-80
2022/05/04 04:50:46;;;;;;;28.85;15.68;;;10.90;69.50;;;;;;5035370;28;20083;-78
2022/05/04 05:17:02;;;;;;;27.25;13.13;;;9.60;75.00;;;;;;5072438;28;20102;-83
2022/05/04 05:19:28;;;;;;;32.10;16.00;;;9.80;74.40;;;;;;5069883;28;20020;-82
2022/05/04 05:21:53;;;;;;;30.27;14.27;;;10.10;73.90;;;;;;5070473;28;20048;-85
2022/05/04 05:24:19;;;;;;;30.08;15.75;;;10.30;73.20;;;;;;5070468;28;20025;-80
2022/05/04 05:26:44;;;;;;;33.17;15.82;;;10.40;72.60;;;;;;5066514;28;20029;-81
2022/05/04 05:29:10;;;;;;;31.55;16.30;;;10.60;72.50;;;;;;5064060;28;20574;-82
2022/05/04 05:31:36;;;;;;;25.08;14.25;;;10.60;72.80;;;;;;5069232;28;20461;-82
2022/05/04 05:34:01;;;;;;;33.58;15.95;;;10.70;72.40;;;;;;5070148;28;20473;-84
2022/05/04 05:36:27;;;;;;;33.28;15.55;;;10.70;73.00;;;;;;5071663;28;20050;-82
2022/05/04 05:38:53;;;;;;;29.33;15.60;;;10.70;72.90;;;;;;5063364;28;20024;-82
2022/05/04 05:41:19;;;;;;;30.63;15.20;;;10.70;73.00;;;;;;5052064;28;20033;-84
2022/05/04 05:43:44;;;;;;;30.63;15.13;;;10.80;73.10;;;;;;5051832;28;20029;-84
2022/05/04 05:46:10;;;;;;;27.00;13.95;;;10.80;73.00;;;;;;5071970;28;20039;-82
2022/05/04 05:48:36;;;;;;;29.90;14.93;;;10.80;73.20;;;;;;5057576;28;20036;-83
2022/05/04 05:51:05;;;;;;;32.97;16.13;;;10.90;72.90;;;;;;5052770;28;20061;-83
2022/05/04 05:53:31;;;;;;;34.35;16.70;;;11.00;73.00;;;;;;5068523;28;20027;-82
2022/05/04 05:55:57;;;;;;;33.08;16.38;;;10.90;73.40;;;;;;5068581;28;20116;-83
2022/05/04 05:58:23;;;;;;;31.50;15.50;;;10.90;73.90;;;;;;5069843;28;20012;-81
2022/05/04 06:00:52;;;;;;;31.27;15.75;;;11.00;73.40;;;;;;5070894;28;20021;-83
2022/05/04 06:03:18;;;;;;;31.88;16.35;;;11.10;73.20;;;;;;5065511;28;20028;-84
2022/05/04 06:05:44;;;;;;;32.95;16.77;;;11.10;73.40;;;;;;5063742;28;20033;-83
2022/05/04 06:08:10;;;;;;;32.40;16.20;;;11.20;72.90;;;;;;5070476;28;20123;-83
2022/05/04 06:10:39;;;;;;;34.55;16.45;;;11.20;73.30;;;;;;5069829;28;20086;-84
2022/05/04 06:13:06;;;;;;;28.80;15.43;;;11.20;73.40;;;;;;5056195;28;20117;-83
2022/05/04 06:15:32;;;;;;;34.08;17.02;;;11.30;73.80;;;;;;5050404;28;20123;-83
2022/05/04 06:17:58;;;;;;;30.27;16.33;;;11.30;73.80;;;;;;5051476;28;20459;-83
2022/05/04 06:20:24;;;;;;;41.13;17.08;;;11.30;73.90;;;;;;5070029;28;20028;-83
2022/05/04 06:22:50;;;;;;;32.33;16.30;;;11.40;74.10;;;;;;5071083;28;20051;-83
2022/05/04 06:25:16;;;;;;;34.15;16.63;;;11.40;74.10;;;;;;5058825;28;20033;-84
2022/05/04 06:27:42;;;;;;;27.52;14.63;;;11.60;73.30;;;;;;5056358;28;20032;-84
2022/05/04 06:35:37;;;;;;;26.05;13.98;;;11.90;72.20;;;;;;5048862;28;20087;-82
2022/05/04 06:38:04;;;;;;;34.80;17.38;;;12.10;72.30;;;;;;5057683;28;20127;-84
2022/05/04 06:40:29;;;;;;;37.78;18.02;;;12.10;72.60;;;;;;5047407;28;20078;-84
2022/05/04 06:42:55;;;;;;;30.83;15.50;;;12.20;72.70;;;;;;5036110;28;20026;-84
2022/05/04 06:45:21;;;;;;;35.35;17.73;;;12.20;73.10;;;;;;5038315;28;20040;-84
2022/05/04 06:47:46;;;;;;;38.63;18.00;;;12.20;73.30;;;;;;5057269;28;20028;-82
2022/05/04 06:50:13;;;;;;;33.28;16.98;;;12.30;73.30;;;;;;5057996;28;20033;-84
2022/05/04 06:52:39;;;;;;;35.63;17.00;;;12.50;73.00;;;;;;5048962;28;20228;-82
2022/05/04 06:55:08;;;;;;;35.70;17.25;;;12.70;72.80;;;;;;5037003;28;20061;-83
2022/05/04 06:57:37;;;;;;;32.10;16.23;;;12.80;73.30;;;;;;5036887;28;20048;-83
2022/05/04 07:00:04;;;;;;;31.75;16.08;;;12.90;72.30;;;;;;5036805;28;20143;-83
2022/05/04 07:02:31;;;;;;;36.03;16.83;;;13.10;72.30;;;;;;5037319;28;20252;-83
2022/05/04 07:04:57;;;;;;;36.97;16.48;;;13.20;72.20;;;;;;5054743;28;20040;-83
2022/05/04 07:07:22;;;;;;;32.63;15.75;;;13.30;72.40;;;;;;5059234;28;20549;-83
2022/05/04 07:09:48;;;;;;;31.02;16.42;;;13.30;72.30;;;;;;5076500;28;20031;-83
2022/05/04 07:12:14;;;;;;;32.30;16.05;;;13.60;71.70;;;;;;5061802;28;20399;-83
2022/05/04 07:14:39;;;;;;;32.88;16.33;;;14.00;70.20;;;;;;5056543;28;20033;-83
2022/05/04 07:17:05;;;;;;;24.35;14.30;;;15.80;66.20;;;;;;5038257;28;20029;-83
2022/05/04 07:19:31;;;;;;;26.45;14.00;;;18.30;59.00;;;;;;5052176;28;20088;-83
2022/05/04 07:21:56;;;;;;;30.17;15.13;;;20.20;52.60;;;;;;5043889;28;20025;-83
2022/05/04 07:24:22;;;;;;;27.92;16.92;;;21.50;48.70;;;;;;5056214;28;20521;-83
2022/05/04 07:26:47;;;;;;;24.92;14.82;;;22.20;46.80;;;;;;5050513;28;20040;-83
2022/05/04 07:29:13;;;;;;;23.83;14.85;;;22.60;45.50;;;;;;5034714;28;20026;-83
2022/05/04 07:31:39;;;;;;;27.13;15.55;;;22.50;45.00;;;;;;5055199;28;20827;-83
2022/05/04 07:34:04;;;;;;;28.70;16.55;;;22.60;44.10;;;;;;5053149;28;20029;-83
2022/05/04 07:36:30;;;;;;;23.63;14.93;;;22.50;44.80;;;;;;5034974;28;20037;-84
2022/05/04 07:38:56;;;;;;;23.67;15.32;;;23.30;43.80;;;;;;5036370;28;20130;-84
2022/05/04 07:44:06;;;;;;;21.85;14.98;;;25.20;40.20;;;;;;5048194;28;20047;-84
2022/05/04 07:46:33;;;;;;;24.38;15.45;;;26.60;37.80;;;;;;5055569;28;20029;-84
2022/05/04 07:48:59;;;;;;;22.73;16.00;;;27.30;35.20;;;;;;5044468;28;20025;-84
2022/05/04 07:51:25;;;;;;;24.35;17.88;;;28.00;35.00;;;;;;5040135;28;20017;-83
2022/05/04 07:53:51;;;;;;;25.63;17.48;;;28.70;34.00;;;;;;5050518;28;20508;-84
2022/05/04 07:56:16;;;;;;;23.63;18.33;;;29.30;32.70;;;;;;5036002;28;20561;-84
2022/05/04 07:58:42;;;;;;;23.42;18.52;;;29.80;31.90;;;;;;5035770;28;20104;-84
2022/05/04 08:06:36;;;;;;;25.05;18.80;;;31.00;30.00;;;;;;5039681;28;20061;-83
2022/05/04 08:09:02;;;;;;;26.25;18.85;;;31.20;29.10;;;;;;5035908;28;20392;-84
2022/05/04 08:11:28;;;;;;;21.58;17.90;;;31.50;28.80;;;;;;5042877;28;20052;-83
2022/05/04 08:13:53;;;;;;;23.48;17.67;;;31.80;28.00;;;;;;5036834;28;20080;-83
2022/05/04 08:16:19;;;;;;;17.50;14.82;;;31.70;28.00;;;;;;5035645;28;20101;-83
2022/05/04 08:18:45;;;;;;;18.55;14.55;;;32.10;26.70;;;;;;5035729;28;20047;-83
2022/05/04 08:21:10;;;;;;;18.00;15.65;;;32.40;26.80;;;;;;5034842;28;20057;-83
2022/05/04 08:23:36;;;;;;;18.85;15.52;;;32.40;26.50;;;;;;5034281;28;20029;-84
2022/05/04 08:26:03;;;;;;;17.58;14.98;;;32.80;26.40;;;;;;5035436;28;20026;-83
2022/05/04 08:28:29;;;;;;;16.35;14.32;;;33.00;26.30;;;;;;5066833;28;20048;-83
2022/05/04 08:30:55;;;;;;;16.50;14.68;;;33.00;26.20;;;;;;5035368;28;20033;-84
2022/05/04 08:33:21;;;;;;;19.88;15.35;;;33.00;26.20;;;;;;5035341;28;20069;-84
2022/05/04 08:35:47;;;;;;;17.20;14.63;;;33.30;25.90;;;;;;5035532;28;20033;-84
2022/05/04 08:38:13;;;;;;;21.73;16.13;;;33.30;26.10;;;;;;5034863;28;20017;-83
2022/05/04 08:40:39;;;;;;;18.55;15.10;;;33.30;26.20;;;;;;5035177;28;20435;-83
2022/05/04 08:43:07;;;;;;;18.35;14.90;;;33.00;26.10;;;;;;5035138;28;20028;-83
2022/05/04 08:45:37;;;;;;;18.13;14.57;;;32.80;26.20;;;;;;5033718;28;20029;-83
2022/05/04 08:48:05;;;;;;;22.15;15.40;;;32.90;26.40;;;;;;5035147;28;20040;-83
2022/05/04 08:50:31;;;;;;;19.47;15.97;;;33.00;25.80;;;;;;5034982;28;20820;-83
2022/05/04 08:52:57;;;;;;;16.77;14.95;;;33.00;26.40;;;;;;5051908;28;20483;-83
2022/05/04 08:55:24;;;;;;;16.73;14.43;;;32.90;25.80;;;;;;5047665;28;20030;-83
2022/05/04 08:57:50;;;;;;;15.95;13.10;;;32.90;26.10;;;;;;5034672;28;20032;-83
2022/05/04 09:00:17;;;;;;;15.95;13.13;;;32.90;25.70;;;;;;5035144;28;20495;-82
2022/05/04 09:02:43;;;;;;;14.77;13.07;;;32.80;25.80;;;;;;5033622;28;20096;-83
2022/05/04 09:05:26;;;;;;;15.75;12.77;;;32.90;25.60;;;;;;5036432;28;20448;-83
2022/05/04 09:07:54;;;;;;;17.83;14.38;;;32.80;25.40;;;;;;5034870;28;20052;-83
2022/05/04 09:10:27;;;;;;;13.88;12.48;;;32.90;25.50;;;;;;5042531;28;20104;-83
2022/05/04 09:12:55;;;;;;;14.75;12.80;;;32.90;25.30;;;;;;5034363;28;20046;-83
2022/05/04 09:15:28;;;;;;;;;;;33.10;25.40;;;;;;5036073;28;20026;-83
2022/05/04 09:18:08;;;;;;;14.98;12.60;;;33.50;25.60;;;;;;5034506;28;20291;-83
2022/05/04 09:20:51;;;;;;;15.02;12.88;;;33.70;24.50;;;;;;5051978;28;20061;-83
2022/05/04 09:23:28;;;;;;;14.35;12.82;;;33.90;25.00;;;;;;5054300;28;20424;-83
2022/05/04 09:25:59;;;;;;;15.07;11.38;;;33.90;24.50;;;;;;5054545;28;20037;-83
2022/05/04 09:28:27;;;;;;;13.75;11.63;;;34.00;24.70;;;;;;5048588;28;20033;-83
2022/05/04 09:30:55;;;;;;;;;;;34.30;24.40;;;;;;5049764;28;20121;-83
2022/05/04 09:33:28;;;;;;;14.77;12.57;;;34.30;23.70;;;;;;5034336;28;20296;-83
2022/05/04 09:35:56;;;;;;;15.93;12.45;;;34.40;24.00;;;;;;5034137;28;20025;-83
2022/05/04 09:46:47;;;;;;;17.80;14.70;;;33.40;25.60;;;;;;5034553;28;20036;-83
2022/05/04 09:49:14;;;;;;;18.35;13.45;;;31.60;26.50;;;;;;5034120;28;20030;-83
2022/05/04 09:51:44;;;;;;;17.77;14.18;;;32.70;27.10;;;;;;5072458;28;20032;-83
2022/05/04 09:54:18;;;;;;;19.42;14.07;;;33.10;25.10;;;;;;5050450;28;20060;-84
2022/05/04 09:56:51;;;;;;;14.82;12.27;;;33.10;25.00;;;;;;5047696;28;20089;-84
2022/05/04 09:59:23;;;;;;;17.17;12.43;;;33.20;25.80;;;;;;5053912;28;20107;-84
2022/05/04 10:01:51;;;;;;;15.23;12.50;;;33.10;25.50;;;;;;5058234;28;20021;-82
2022/05/04 10:04:17;;;;;;;16.48;12.95;;;32.20;26.30;;;;;;5057824;28;20033;-83
2022/05/04 10:06:44;;;;;;;15.25;12.35;;;31.30;27.20;;;;;;5056391;28;20029;-82
2022/05/04 10:09:10;;;;;;;18.58;13.52;;;29.80;28.60;;;;;;5056016;28;20339;-83
2022/05/04 10:11:37;;;;;;;17.77;12.43;;;29.00;29.70;;;;;;5057855;28;20025;-83
2022/05/04 10:14:10;;;;;;;17.05;12.35;;;29.10;30.00;;;;;;5056544;28;20053;-83
2022/05/04 10:17:01;;;;;;;17.77;11.82;;;29.60;30.10;;;;;;5055892;28;20687;-82
2022/05/04 10:19:52;;;;;;;14.05;11.48;;;30.30;29.70;;;;;;5056926;28;20229;-83
2022/05/04 10:22:26;;;;;;;12.48;10.80;;;29.80;29.30;;;;;;5055057;28;20036;-81
2022/05/04 10:24:54;;;;;;;16.02;11.68;;;30.20;29.60;;;;;;5056230;28;20044;-81
2022/05/04 10:27:23;;;;;;;18.55;13.43;;;29.80;29.50;;;;;;5055776;28;20021;-82
2022/05/04 10:30:43;;;;;;;15.85;11.27;;;28.90;30.30;;;;;;5057523;28;20124;-83
2022/05/04 10:32:46;;;;;;;15.68;11.57;;;28.50;31.50;;;;;;5039241;28;20046;-82
2022/05/04 10:35:36;;;;;;;15.93;10.43;;;27.60;32.10;;;;;;5036003;28;20026;-82
2022/05/04 10:38:03;;;;;;;15.27;10.52;;;27.30;32.10;;;;;;5036098;28;20048;-82
2022/05/04 10:40:38;;;;;;;16.10;10.82;;;26.90;32.40;;;;;;5069478;28;20021;-82
2022/05/04 10:43:08;;;;;;;16.92;9.75;;;26.30;32.70;;;;;;5037085;28;20080;-81
2022/05/04 10:45:36;;;;;;;13.18;9.45;;;25.70;33.80;;;;;;5037355;28;20396;-81
2022/05/04 10:48:20;;;;;;;15.63;9.23;;;25.90;33.90;;;;;;5037542;28;20037;-81
2022/05/04 10:50:53;;;;;;;13.00;9.57;;;25.80;34.10;;;;;;5047340;28;20639;-81
2022/05/04 10:53:25;;;;;;;10.68;7.78;;;25.60;34.20;;;;;;5035903;28;20103;-82
2022/05/04 10:56:12;;;;;;;15.63;10.70;;;25.60;35.00;;;;;;5052950;28;20037;-81
2022/05/04 10:58:50;;;;;;;18.30;12.02;;;25.20;35.80;;;;;;5057015;28;20419;-81
2022/05/04 11:01:17;;;;;;;16.13;10.23;;;25.30;36.40;;;;;;5049304;28;20026;-81
2022/05/04 11:04:10;;;;;;;16.95;10.60;;;25.40;35.90;;;;;;5043964;28;20021;-81
2022/05/04 11:06:46;;;;;;;16.67;10.43;;;25.20;36.30;;;;;;5056677;28;20029;-81
2022/05/04 11:09:15;;;;;;;15.05;10.75;;;25.20;36.10;;;;;;5052174;28;20392;-81
2022/05/04 11:11:43;;;;;;;14.18;9.88;;;25.10;35.80;;;;;;5078788;28;20032;-81
2022/05/04 11:14:14;;;;;;;16.20;10.90;;;25.20;36.30;;;;;;5055174;28;20068;-79
2022/05/04 11:16:42;;;;;;;20.25;11.95;;;25.20;36.40;;;;;;5056902;28;20060;-84
2022/05/04 11:19:11;;;;;;;16.75;11.15;;;25.20;35.20;;;;;;5050967;28;20029;-82
2022/05/04 11:21:37;;;;;;;16.95;12.02;;;25.40;35.90;;;;;;5035289;28;20030;-84
2022/05/04 11:24:06;;;;;;;18.30;10.98;;;25.20;36.00;;;;;;5042206;28;20087;-82
2022/05/04 11:26:36;;;;;;;15.32;10.25;;;25.00;36.00;;;;;;5055060;28;20029;-81
2022/05/04 11:29:07;;;;;;;16.35;11.10;;;25.10;35.80;;;;;;5056585;28;20028;-81
2022/05/04 11:31:33;;;;;;;21.25;11.73;;;25.00;36.10;;;;;;5046234;28;20068;-81
2022/05/04 11:33:58;;;;;;;18.63;11.32;;;24.70;37.00;;;;;;5036511;28;20026;-83
2022/05/04 11:36:24;;;;;;;14.57;9.07;;;24.80;37.40;;;;;;5036486;28;20100;-81
2022/05/04 11:38:50;;;;;;;14.80;9.25;;;24.70;36.70;;;;;;5035971;28;20021;-81
2022/05/04 11:41:17;;;;;;;16.60;10.10;;;24.80;36.10;;;;;;5038324;28;20106;-82
2022/05/04 11:43:43;;;;;;;15.27;9.85;;;24.90;36.80;;;;;;5055027;28;20483;-81
2022/05/04 11:46:12;;;;;;;16.65;9.48;;;25.00;35.80;;;;;;5055871;28;20029;-87
2022/05/04 11:48:44;;;;;;;15.95;9.52;;;24.90;35.80;;;;;;5054772;28;20029;-80
2022/05/04 11:51:11;;;;;;;16.10;9.50;;;25.00;36.00;;;;;;5038114;28;20034;-80
2022/05/04 11:53:37;;;;;;;18.00;11.00;;;24.70;36.40;;;;;;5055830;28;20029;-79
2022/05/04 11:56:05;;;;;;;16.52;9.32;;;24.80;36.00;;;;;;5045031;28;20025;-79
2022/05/04 11:58:32;;;;;;;15.02;9.25;;;24.80;36.60;;;;;;5058497;28;20035;-79
2022/05/04 12:00:59;;;;;;;16.33;8.70;;;24.80;37.10;;;;;;5036865;28;20022;-79
2022/05/04 12:03:26;;;;;;;16.13;9.68;;;24.90;37.00;;;;;;5037890;28;20033;-80
2022/05/04 12:05:54;;;;;;;13.75;8.75;;;25.00;36.50;;;;;;5046981;28;20025;-79
2022/05/04 12:08:21;;;;;;;10.90;7.32;;;24.80;37.30;;;;;;5050287;28;20035;-78
2022/05/04 12:10:49;;;;;;;12.60;7.55;;;24.40;36.10;;;;;;5046082;28;20037;-79
2022/05/04 12:13:18;;;;;;;12.82;8.48;;;24.20;36.30;;;;;;5052058;28;20044;-79
2022/05/04 12:15:45;;;;;;;;;;;24.30;36.40;;;;;;5046115;28;20044;-77
2022/05/04 12:18:12;;;;;;;11.82;7.30;;;24.30;37.10;;;;;;5051018;28;19913;-78
2022/05/04 12:20:37;;;;;;;11.63;6.65;;;24.50;35.80;;;;;;5052790;28;20025;-80
2022/05/04 12:23:04;;;;;;;9.63;5.22;;;24.60;35.70;;;;;;5050256;28;20021;-77
2022/05/04 12:25:31;;;;;;;6.88;4.88;;;24.50;35.00;;;;;;5050024;28;20037;-79
2022/05/04 12:27:57;;;;;;;8.95;5.43;;;24.30;35.20;;;;;;5050718;28;20033;-78
2022/05/04 12:33:13;;;;;;;9.20;4.72;;;24.30;35.70;;;;;;5047201;28;20059;-79
2022/05/04 12:35:43;;;;;;;9.25;5.22;;;24.40;36.40;;;;;;5047958;28;20467;-78
2022/05/04 12:38:15;;;;;;;8.35;4.63;;;24.50;35.10;;;;;;5051168;28;20032;-78
2022/05/04 12:40:41;;;;;;;10.45;5.38;;;24.50;35.80;;;;;;5050809;28;20032;-79
2022/05/04 12:43:07;;;;;;;8.00;5.28;;;24.60;34.90;;;;;;5051631;28;20070;-79
2022/05/04 12:45:35;;;;;;;9.40;5.22;;;24.60;35.00;;;;;;5052853;28;20029;-79
2022/05/04 12:48:04;;;;;;;8.38;4.72;;;24.80;35.00;;;;;;5054070;28;20055;-79
2022/05/04 12:50:29;;;;;;;8.57;5.25;;;24.70;34.90;;;;;;5048571;28;20044;-79
2022/05/04 12:52:56;;;;;;;8.93;5.13;;;24.60;34.80;;;;;;5053529;28;20479;-79
2022/05/04 12:58:08;;;;;;;7.45;5.07;;;24.50;35.40;;;;;;5054517;28;20143;-79
2022/05/04 13:00:35;;;;;;;6.68;4.38;;;24.10;35.40;;;;;;5055198;28;20091;-79
2022/05/04 13:03:00;;;;;;;8.13;4.70;;;23.80;35.80;;;;;;5047511;28;20029;-79
2022/05/04 13:05:26;;;;;;;5.50;3.88;;;23.70;35.40;;;;;;5053801;28;20025;-79
2022/05/04 13:07:52;;;;;;;7.07;4.03;;;24.00;36.60;;;;;;5053028;28;20063;-79
2022/05/04 13:10:18;;;;;;;7.22;3.28;;;24.30;35.50;;;;;;5054651;28;20021;-79
2022/05/04 13:12:44;;;;;;;4.88;3.13;;;24.50;35.70;;;;;;5054088;28;20051;-79
2022/05/04 13:15:10;;;;;;;5.40;2.70;;;24.70;35.20;;;;;;5053869;28;20100;-79
2022/05/04 13:17:36;;;;;;;4.82;2.35;;;24.40;33.40;;;;;;5053557;28;20026;-79
2022/05/04 13:20:03;;;;;;;3.47;2.25;;;24.10;33.50;;;;;;5052351;28;20025;-79
2022/05/04 13:22:29;;;;;;;4.65;2.90;;;24.20;34.60;;;;;;5053084;28;20025;-79
2022/05/04 13:24:57;;;;;;;5.47;3.08;;;24.30;33.80;;;;;;5052200;28;20025;-79
2022/05/04 13:27:23;;;;;;;4.95;2.25;;;24.40;34.00;;;;;;5050003;28;20040;-79
2022/05/04 13:29:49;;;;;;;4.10;2.38;;;24.40;34.70;;;;;;5050910;28;20388;-79
2022/05/04 13:32:15;;;;;;;7.15;3.28;;;24.30;34.90;;;;;;5053356;28;20032;-79